map of PNZ home
PNZ - Airport
Location
City:  Petrolina, Pernambuco, Brazil
Name:Senador Nilo Coelho
ICAO:SBPL
IATA:PNZ

Details
Type:Airport (Aerodrome, Airfield)
Latitude:921'45"S (-9.362410)
Longitude:4034'09"W (-40.569096)
Datum:WGS 1984
Elevation:1263 ft (385 m)
Variation:22.61W (WMM2015 magnetic declination)
-0.01 annual change
Runways:1
Longest:10645 × 140 ft (3245 × 42.5 m), paved

Time
Time Zone:UTC-3
Local Time:

Weather
METAR:SBPL 180100Z 15004KT CAVOK 30/14 Q1013
TAF:SBPL 172200Z 1800/1824 14011KT CAVOK TN25/1808Z TX35/1818Z
BECMG 1806/1808 SCT030
BECMG 1821/1822 CAVOK
RMK PEU

Related Locations
Nearby:
Farthest:ULI: 12381 mi / 19926 km
Falalop Island [Ulithi Civil Airfield], Ulithi Atoll, YAP, FM

Find:

   beyond  
but within

Other Information
Maps:
NOTAMs:
Links:
Sources:

  
  • flag of Brazil
  • flag of Pernambuco
  • flag of Petrolina
  

Sectional Chart

Flight Planning
at skyvector.com

Satellite Image

Google Maps Satellite view

 

Copyright © 2004-2018 Karl L. Swartz. All rights reserved.
The Great Circle Mapper name and logo are trademarks of the Great Circle Mapper.
All other trademarks mentioned herein belong to their respective owners.
Please see credits for attibutions and further copyright information.

  Follow gcmap on Facebook Follow gcmap on Twitter Follow gcmap on Google+ GCmap on LinkedIn

hCard Microformat

Geo Microformat